Time;durP1;ratioP1;P1;durP2;ratioP2;P2;SDS_P1;SDS_P2;PMS_P1;PMS_P2;Temp;Humidity;BMP_temperature;BMP_pressure;BME280_temperature;BME280_humidity;BME280_pressure;Samples;Min_cycle;Max_cycle;Signal;HPM_P1;HPM_P2
2021/12/30 00:01:06;;;;;;;5.60;1.70;;;;;;;11.98;95.61;99419.53;5024354;28;20048;-83
2021/12/30 00:03:34;;;;;;;5.30;2.08;;;;;;;11.96;95.83;99410.78;5008281;28;20060;-85
2021/12/30 00:06:02;;;;;;;4.03;1.40;;;;;;;11.98;95.92;99397.31;5022547;28;20079;-83
2021/12/30 00:08:29;;;;;;;6.78;1.55;;;;;;;11.96;96.33;99400.50;5025972;28;20056;-85
2021/12/30 00:10:56;;;;;;;4.90;1.55;;;;;;;11.97;96.56;99398.50;5025214;28;21283;-87
2021/12/30 00:13:23;;;;;;;6.95;1.70;;;;;;;11.96;96.56;99399.69;5027029;28;20040;-84
2021/12/30 00:15:51;;;;;;;6.80;1.50;;;;;;;11.95;96.49;99403.66;5026512;28;20091;-84
2021/12/30 00:18:18;;;;;;;2.38;1.30;;;;;;;11.95;96.69;99392.56;5009780;28;20128;-84
2021/12/30 00:20:46;;;;;;;3.03;1.50;;;;;;;11.93;96.52;99403.25;5026318;28;20046;-83
2021/12/30 00:23:13;;;;;;;4.22;1.17;;;;;;;11.93;96.80;99403.25;5026186;28;20392;-83
2021/12/30 00:25:41;;;;;;;6.25;1.27;;;;;;;11.91;96.67;99406.41;5025766;28;20118;-83
2021/12/30 00:28:17;;;;;;;4.78;1.33;;;;;;;11.86;96.83;99394.88;5007585;28;20046;-83
2021/12/30 00:30:45;;;;;;;4.78;1.25;;;;;;;11.84;97.12;99377.81;5025767;28;20362;-82
2021/12/30 00:33:13;;;;;;;3.88;1.25;;;;;;;11.83;97.04;99376.25;5025645;28;20786;-83
2021/12/30 00:35:45;;;;;;;2.78;1.17;;;;;;;11.84;97.33;99375.03;5027063;28;20096;-83
2021/12/30 00:38:12;;;;;;;4.93;1.10;;;;;;;11.85;97.44;99382.19;5025514;28;20061;-82
2021/12/30 00:40:38;;;;;;;4.72;1.45;;;;;;;11.87;97.58;99393.69;5026524;28;20673;-82
2021/12/30 00:43:06;;;;;;;7.20;2.33;;;;;;;11.87;97.53;99396.47;5025101;28;20037;-82
2021/12/30 00:45:35;;;;;;;3.80;0.80;;;;;;;11.90;97.68;99390.16;5023877;28;20077;-82
2021/12/30 00:48:03;;;;;;;2.15;0.70;;;;;;;11.91;97.35;99387.00;5022764;28;20048;-82
2021/12/30 00:50:30;;;;;;;9.43;2.58;;;;;;;11.90;97.31;99390.16;5026694;28;20041;-82
2021/12/30 00:52:59;;;;;;;5.20;1.13;;;;;;;11.89;97.40;99388.53;5025167;28;20508;-82
2021/12/30 00:55:26;;;;;;;3.17;0.95;;;;;;;11.87;97.32;99385.38;5022546;28;20558;-82
2021/12/30 00:57:52;;;;;;;4.03;0.75;;;;;;;11.85;97.31;99373.88;5027115;28;20055;-82
2021/12/30 01:00:20;;;;;;;4.38;1.98;;;;;;;11.86;97.64;99372.69;5019616;28;20069;-82
2021/12/30 01:02:48;;;;;;;3.70;0.88;;;;;;;11.86;97.47;99378.25;5025196;28;20045;-82
2021/12/30 01:05:16;;;;;;;3.40;0.93;;;;;;;11.86;97.43;99378.25;5025110;28;20075;-82
2021/12/30 01:07:43;;;;;;;6.80;1.27;;;;;;;11.85;97.68;99391.31;5024941;28;20484;-83
2021/12/30 01:10:13;;;;;;;2.50;0.55;;;;;;;11.84;97.43;99380.59;5006781;28;20073;-82
2021/12/30 01:12:41;;;;;;;2.55;0.95;;;;;;;11.83;97.42;99395.66;5012981;28;20046;-82
2021/12/30 01:15:11;;;;;;;2.95;1.10;;;;;;;11.79;97.23;99386.50;5017202;28;20041;-83
2021/12/30 01:18:19;;;;;;;2.40;0.40;;;;;;;11.76;97.22;99396.38;5023769;28;20037;-83
2021/12/30 01:20:39;;;;;;;3.95;0.65;;;;;;;11.74;97.52;99400.72;5027141;28;20103;-82
2021/12/30 01:23:06;;;;;;;1.70;0.50;;;;;;;11.74;97.49;99409.06;5025140;28;20048;-83
2021/12/30 01:25:33;;;;;;;1.52;0.50;;;;;;;11.74;97.74;99390.44;5024024;28;20152;-82
2021/12/30 01:28:00;;;;;;;3.70;0.60;;;;;;;11.75;97.84;99400.38;5026799;28;20152;-82
2021/12/30 01:30:27;;;;;;;2.47;0.57;;;;;;;11.78;97.72;99401.56;5006368;28;20038;-83
2021/12/30 01:32:54;;;;;;;1.48;0.35;;;;;;;11.78;97.74;99393.25;5027521;28;20541;-82
2021/12/30 01:35:25;;;;;;;0.60;0.40;;;;;;;11.79;97.95;99392.84;5025043;28;20041;-83
2021/12/30 01:37:56;;;;;;;2.28;0.80;;;;;;;11.83;97.97;99379.03;5026952;28;20148;-83
2021/12/30 01:40:24;;;;;;;1.23;0.40;;;;;;;11.84;97.98;99370.31;5029815;28;20405;-82
2021/12/30 01:42:51;;;;;;;1.42;1.02;;;;;;;11.87;98.12;99385.38;5029459;28;20068;-82
2021/12/30 01:45:19;;;;;;;3.08;0.43;;;;;;;11.90;98.20;99381.81;5029544;28;20057;-82
2021/12/30 01:47:54;;;;;;;0.60;0.20;;;;;;;11.91;97.93;99372.34;5029424;28;20034;-82
2021/12/30 01:50:23;;;;;;;1.00;0.30;;;;;;;11.91;97.67;99369.56;5030075;28;20045;-83
2021/12/30 01:52:50;;;;;;;4.07;1.00;;;;;;;11.90;97.71;99360.44;5010010;28;20056;-83
2021/12/30 01:55:18;;;;;;;2.38;0.45;;;;;;;11.86;97.68;99356.84;5028933;28;20043;-82
2021/12/30 01:57:47;;;;;;;0.82;0.25;;;;;;;11.84;97.59;99352.84;5012159;28;20049;-83
2021/12/30 02:00:19;;;;;;;4.22;0.43;;;;;;;11.81;97.74;99354.44;5027351;28;20037;-83
2021/12/30 02:02:46;;;;;;;0.77;0.20;;;;;;;11.81;97.95;99381.38;5028263;28;20042;-83
2021/12/30 02:05:13;;;;;;;0.52;0.25;;;;;;;11.80;97.81;99374.25;5028420;28;20033;-82
2021/12/30 02:07:40;;;;;;;0.75;0.30;;;;;;;11.79;97.61;99381.75;5011767;28;20033;-82
2021/12/30 02:10:08;;;;;;;0.90;0.20;;;;;;;11.76;97.31;99384.50;5029817;28;20041;-82
2021/12/30 02:12:37;;;;;;;1.75;0.20;;;;;;;11.72;97.86;99375.38;5026195;28;20060;-82
2021/12/30 02:15:07;;;;;;;0.38;0.22;;;;;;;11.71;97.68;99373.78;5028018;28;20489;-82
2021/12/30 02:17:34;;;;;;;0.55;0.10;;;;;;;11.69;97.91;99387.22;5009277;28;20064;-82
2021/12/30 02:20:05;;;;;;;0.40;0.10;;;;;;;11.70;98.05;99402.69;5025749;28;20069;-82
2021/12/30 02:22:31;;;;;;;1.88;0.20;;;;;;;11.71;98.11;99401.50;5020672;28;20144;-82
2021/12/30 02:24:59;;;;;;;0.10;0.10;;;;;;;11.73;98.34;99390.84;5019598;28;20048;-82
2021/12/30 02:27:27;;;;;;;0.30;0.10;;;;;;;11.76;98.47;99390.03;5023647;28;20045;-82
2021/12/30 02:29:53;;;;;;;0.57;0.20;;;;;;;11.77;98.72;99400.78;5019717;28;20045;-83
2021/12/30 02:32:21;;;;;;;0.25;0.13;;;;;;;11.77;98.79;99400.78;5006377;28;21677;-82
2021/12/30 02:34:49;;;;;;;0.10;0.10;;;;;;;11.80;98.84;99413.06;5019697;28;20061;-82
2021/12/30 02:37:18;;;;;;;0.10;0.10;;;;;;;11.82;98.58;99419.00;5000882;28;20047;-82
2021/12/30 02:39:51;;;;;;;0.38;0.10;;;;;;;11.81;98.52;99420.97;5018636;28;20053;-82
2021/12/30 02:42:23;;;;;;;0.20;0.20;;;;;;;11.82;98.64;99422.59;5020621;28;20037;-82
2021/12/30 02:44:51;;;;;;;0.10;0.10;;;;;;;11.82;98.73;99410.69;5001845;28;20559;-83
2021/12/30 02:47:18;;;;;;;1.23;0.20;;;;;;;11.82;98.94;99410.69;5021698;28;20041;-82
2021/12/30 02:49:45;;;;;;;1.25;0.08;;;;;;;11.81;98.96;99420.97;5003173;28;20042;-82
2021/12/30 02:52:12;;;;;;;1.40;0.20;;;;;;;11.79;98.60;99422.56;5016336;28;20060;-83
2021/12/30 02:54:40;;;;;;;0.47;0.20;;;;;;;11.77;98.64;99424.91;5020695;28;20053;-83
2021/12/30 02:57:07;;;;;;;0.65;0.10;;;;;;;11.76;98.65;99423.31;5017759;28;20104;-83
2021/12/30 02:59:34;;;;;;;0.00;0.00;;;;;;;11.76;98.61;99426.09;5022765;28;20052;-82
2021/12/30 03:02:02;;;;;;;1.45;0.00;;;;;;;11.74;98.30;99425.69;5019262;28;20135;-83
2021/12/30 03:04:30;;;;;;;3.22;0.98;;;;;;;11.72;98.45;99420.53;5020064;28;20044;-82
2021/12/30 03:06:58;;;;;;;0.05;0.00;;;;;;;11.73;98.72;99418.56;5018168;28;20075;-81
2021/12/30 03:09:26;;;;;;;1.00;0.00;;;;;;;11.72;98.41;99422.50;5018563;28;20076;-82
2021/12/30 03:11:55;;;;;;;0.00;0.00;;;;;;;11.73;98.72;99419.34;5015285;28;20057;-83
2021/12/30 03:14:24;;;;;;;0.10;0.10;;;;;;;11.75;98.73;99427.28;5020929;28;20074;-82
2021/12/30 03:16:52;;;;;;;0.63;0.10;;;;;;;11.76;98.75;99426.09;5015740;28;20049;-82
2021/12/30 03:19:19;;;;;;;0.13;0.10;;;;;;;11.79;98.97;99436.41;5015418;28;20041;-82
2021/12/30 03:21:47;;;;;;;0.00;0.00;;;;;;;11.81;98.77;99436.84;5019086;28;20151;-82
2021/12/30 03:24:14;;;;;;;0.20;0.20;;;;;;;11.79;98.77;99440.00;5016576;28;20412;-83
2021/12/30 03:26:40;;;;;;;0.00;0.00;;;;;;;11.81;98.72;99436.84;5003749;28;20055;-82
2021/12/30 03:29:07;;;;;;;0.30;0.10;;;;;;;11.81;98.67;99431.31;5020363;28;20057;-82
2021/12/30 03:31:34;;;;;;;0.10;0.10;;;;;;;11.82;98.94;99427.34;5015539;28;20042;-82
2021/12/30 03:34:01;;;;;;;0.10;0.10;;;;;;;11.83;98.95;99429.72;4997658;28;20045;-82
2021/12/30 03:36:28;;;;;;;0.00;0.00;;;;;;;11.84;98.77;99444.38;5018764;28;20041;-82
2021/12/30 03:38:56;;;;;;;0.08;0.08;;;;;;;11.87;99.05;99432.50;5019739;28;20578;-82
2021/12/30 03:41:27;;;;;;;0.10;0.10;;;;;;;11.88;98.82;99431.34;5017871;28;20044;-82
2021/12/30 03:43:55;;;;;;;0.10;0.10;;;;;;;11.87;98.62;99443.59;4995418;28;20397;-82
2021/12/30 03:46:23;;;;;;;0.10;0.05;;;;;;;11.86;98.86;99445.56;5016637;28;20140;-82
2021/12/30 03:48:50;;;;;;;0.10;0.10;;;;;;;11.85;98.88;99437.66;5014198;28;20120;-82
2021/12/30 03:51:24;;;;;;;0.17;0.17;;;;;;;11.85;98.73;99440.44;5018704;28;22420;-82
2021/12/30 03:53:55;;;;;;;0.20;0.10;;;;;;;11.84;99.05;99441.59;5017205;28;20091;-82
2021/12/30 03:56:25;;;;;;;0.10;0.10;;;;;;;11.85;98.98;99445.97;5016740;28;20045;-83
2021/12/30 03:58:53;;;;;;;0.00;0.00;;;;;;;11.84;99.17;99459.03;5017630;28;20119;-82
2021/12/30 04:01:22;;;;;;;0.10;0.10;;;;;;;11.88;99.08;99464.63;5021432;28;20042;-82
2021/12/30 04:03:49;;;;;;;0.10;0.10;;;;;;;11.90;99.42;99449.19;5016842;28;20481;-82
2021/12/30 04:06:16;;;;;;;1.55;0.10;;;;;;;11.91;99.04;99452.75;5016215;28;20482;-82
2021/12/30 04:08:44;;;;;;;1.05;0.10;;;;;;;11.91;99.36;99450.00;5015342;28;20116;-82
2021/12/30 04:11:12;;;;;;;0.10;0.10;;;;;;;11.92;99.34;99479.31;5037261;28;20083;-82
2021/12/30 04:13:39;;;;;;;0.00;0.00;;;;;;;11.92;99.13;99480.09;5016977;28;20033;-83
2021/12/30 04:16:06;;;;;;;0.15;0.15;;;;;;;11.92;98.94;99477.31;5020519;28;20043;-82
2021/12/30 04:18:33;;;;;;;0.10;0.00;;;;;;;11.92;99.41;99471.78;5002547;28;20092;-82
2021/12/30 04:21:00;;;;;;;0.45;0.10;;;;;;;11.92;99.35;99470.97;5015626;28;20040;-82
2021/12/30 04:23:27;;;;;;;0.00;0.00;;;;;;;11.96;99.50;99480.13;5014693;28;20050;-82
2021/12/30 04:25:53;;;;;;;1.13;0.08;;;;;;;11.97;99.66;99474.19;5017453;28;20041;-82
2021/12/30 04:28:20;;;;;;;0.00;0.00;;;;;;;12.00;99.37;99469.84;5018610;28;20092;-82
2021/12/30 04:30:47;;;;;;;0.00;0.00;;;;;;;12.02;99.57;99486.94;5016132;28;20688;-82
2021/12/30 04:33:15;;;;;;;0.10;0.10;;;;;;;12.03;99.36;99485.72;5019539;28;20107;-83
2021/12/30 04:35:43;;;;;;;0.00;0.00;;;;;;;12.04;99.37;99490.09;5016146;28;20045;-82
2021/12/30 04:38:10;;;;;;;0.10;0.10;;;;;;;12.07;99.21;99494.88;5015567;28;20043;-82
2021/12/30 04:40:36;;;;;;;0.10;0.10;;;;;;;12.09;99.25;99498.06;4997436;28;20132;-82
2021/12/30 04:43:03;;;;;;;0.10;0.08;;;;;;;12.13;99.44;99504.41;5014327;28;20098;-82
2021/12/30 04:45:30;;;;;;;0.10;0.10;;;;;;;12.14;99.28;99486.59;5015961;28;20061;-83
2021/12/30 04:47:57;;;;;;;0.00;0.00;;;;;;;12.17;99.04;99499.72;5017702;28;20053;-82
2021/12/30 04:50:25;;;;;;;0.10;0.10;;;;;;;12.18;99.07;99474.34;5013737;28;20045;-81
2021/12/30 04:52:53;;;;;;;0.00;0.00;;;;;;;12.19;98.92;99491.78;5016565;28;20489;-82
2021/12/30 04:55:20;;;;;;;0.00;0.00;;;;;;;12.21;99.37;99478.31;5015429;28;20733;-82
2021/12/30 04:57:46;;;;;;;0.17;0.10;;;;;;;12.21;99.25;99478.31;4998087;28;20056;-82
2021/12/30 05:00:14;;;;;;;0.10;0.10;;;;;;;12.23;98.93;99486.28;4999281;28;20053;-82
2021/12/30 05:05:17;;;;;;;0.00;0.00;;;;;;;12.22;99.46;99485.47;5014673;28;20049;-82
2021/12/30 05:07:44;;;;;;;0.32;0.00;;;;;;;12.23;99.57;99482.28;5015494;28;20046;-82
2021/12/30 05:10:11;;;;;;;0.00;0.00;;;;;;;12.23;99.55;99498.19;5012510;28;20042;-82
2021/12/30 05:12:37;;;;;;;0.32;0.10;;;;;;;12.23;99.38;99492.63;5013275;28;20037;-82
2021/12/30 05:15:04;;;;;;;0.00;0.00;;;;;;;12.24;99.81;99496.97;5009043;28;20716;-82
2021/12/30 05:17:31;;;;;;;0.43;0.10;;;;;;;12.23;99.78;99497.38;5014117;28;20045;-82
2021/12/30 05:19:58;;;;;;;0.10;0.00;;;;;;;12.24;99.93;99502.53;5019582;28;20378;-82
2021/12/30 05:22:24;;;;;;;0.22;0.08;;;;;;;12.23;99.88;99502.91;4998317;28;20049;-82
2021/12/30 05:24:51;;;;;;;0.15;0.10;;;;;;;12.23;99.86;99498.19;5013601;28;20050;-82
2021/12/30 05:27:19;;;;;;;0.10;0.10;;;;;;;12.24;100.00;99499.75;5015950;28;21987;-82
2021/12/30 05:29:46;;;;;;;0.43;0.10;;;;;;;12.23;100.00;99504.50;5017282;28;20377;-82
2021/12/30 05:32:13;;;;;;;0.38;0.03;;;;;;;12.23;100.00;99520.38;5014274;28;20046;-82
2021/12/30 05:34:40;;;;;;;0.20;0.20;;;;;;;12.23;100.00;99512.03;5018650;28;20037;-82
2021/12/30 05:37:07;;;;;;;0.30;0.10;;;;;;;12.27;100.00;99528.69;4999843;28;20460;-82
2021/12/30 05:39:37;;;;;;;0.00;0.00;;;;;;;12.28;100.00;99527.53;5014868;28;20076;-82
2021/12/30 05:42:04;;;;;;;0.10;0.10;;;;;;;12.30;100.00;99516.84;5016842;28;22589;-82
2021/12/30 05:44:31;;;;;;;0.43;0.00;;;;;;;12.32;100.00;99511.69;5013521;28;20049;-82
2021/12/30 05:46:58;;;;;;;1.42;0.10;;;;;;;12.31;100.00;99524.75;5013252;28;20148;-83
2021/12/30 05:49:25;;;;;;;0.30;0.10;;;;;;;12.28;100.00;99517.22;5015653;28;20047;-82
2021/12/30 05:51:51;;;;;;;0.00;0.00;;;;;;;12.25;100.00;99529.09;5014079;28;20049;-82
2021/12/30 05:54:18;;;;;;;0.13;0.13;;;;;;;12.26;100.00;99552.09;5014664;28;20045;-82
2021/12/30 05:56:45;;;;;;;0.10;0.10;;;;;;;12.24;100.00;99544.16;5013736;28;20042;-83
2021/12/30 05:59:12;;;;;;;0.00;0.00;;;;;;;12.22;100.00;99532.66;5015449;28;20160;-82
2021/12/30 06:01:38;;;;;;;1.58;0.00;;;;;;;12.21;100.00;99539.38;5015090;28;20037;-82
2021/12/30 06:04:05;;;;;;;0.32;0.10;;;;;;;12.18;100.00;99556.78;5015513;28;20048;-82
2021/12/30 06:06:32;;;;;;;0.30;0.10;;;;;;;12.15;100.00;99552.78;4999859;28;20135;-82
2021/12/30 06:08:59;;;;;;;0.20;0.10;;;;;;;12.16;100.00;99554.41;5016018;28;20128;-82
2021/12/30 06:11:25;;;;;;;0.20;0.00;;;;;;;12.17;100.00;99575.44;5016885;28;20509;-82
2021/12/30 06:13:52;;;;;;;0.90;0.20;;;;;;;12.18;100.00;99582.56;5015331;28;20057;-82
2021/12/30 06:16:19;;;;;;;2.03;0.15;;;;;;;12.21;100.00;99584.56;5014841;28;20044;-82
2021/12/30 06:18:46;;;;;;;0.10;0.10;;;;;;;12.24;100.00;99605.19;5014435;28;20488;-82
2021/12/30 06:21:13;;;;;;;1.00;0.08;;;;;;;12.25;100.00;99615.13;5019540;28;20038;-82
2021/12/30 06:23:39;;;;;;;0.00;0.00;;;;;;;12.28;100.00;99610.78;5012295;28;20099;-82
2021/12/30 06:26:06;;;;;;;1.70;0.05;;;;;;;12.29;100.00;99618.72;5020872;28;20045;-83
2021/12/30 06:28:33;;;;;;;1.65;0.10;;;;;;;12.30;100.00;99628.66;5018672;28;20135;-83
2021/12/30 06:30:59;;;;;;;0.38;0.10;;;;;;;12.30;100.00;99633.41;5023580;28;20052;-82
2021/12/30 06:33:26;;;;;;;0.30;0.05;;;;;;;12.26;100.00;99630.56;5017114;28;20056;-82
2021/12/30 06:35:53;;;;;;;0.45;0.10;;;;;;;12.25;100.00;99631.78;5022279;28;20037;-82
2021/12/30 06:38:20;;;;;;;0.38;0.00;;;;;;;12.25;100.00;99644.84;5019392;28;20363;-82
2021/12/30 06:40:46;;;;;;;0.25;0.13;;;;;;;12.23;100.00;99643.25;5014439;28;20132;-82
2021/12/30 06:43:13;;;;;;;1.58;0.15;;;;;;;12.20;100.00;99644.00;5032543;28;20110;-81
2021/12/30 06:45:44;;;;;;;0.75;0.32;;;;;;;12.20;100.00;99644.00;5017835;28;20545;-82
2021/12/30 06:48:14;;;;;;;1.20;0.10;;;;;;;12.18;100.00;99660.25;5020001;28;20130;-82
2021/12/30 06:50:51;;;;;;;3.63;0.20;;;;;;;12.15;100.00;99663.78;5017027;28;20597;-82
2021/12/30 06:53:22;;;;;;;4.25;0.30;;;;;;;12.15;100.00;99676.88;5017920;28;20052;-82
2021/12/30 06:55:50;;;;;;;0.93;0.30;;;;;;;12.12;100.00;99669.31;5015901;28;20148;-82
2021/12/30 06:58:18;;;;;;;3.70;0.40;;;;;;;12.10;100.00;99674.41;5034952;28;20595;-82
2021/12/30 07:00:47;;;;;;;0.50;0.20;;;;;;;12.07;100.00;99686.31;5022639;28;20124;-82
2021/12/30 07:03:14;;;;;;;2.60;0.47;;;;;;;12.03;100.00;99688.22;5019552;28;20053;-82
2021/12/30 07:05:41;;;;;;;3.50;0.20;;;;;;;12.01;100.00;99690.59;5017376;28;21446;-82
2021/12/30 07:08:08;;;;;;;6.20;1.15;;;;;;;12.00;100.00;99708.41;5003723;28;20054;-83
2021/12/30 07:10:35;;;;;;;1.55;0.20;;;;;;;11.99;100.00;99710.38;5017676;28;20033;-81
2021/12/30 07:13:02;;;;;;;2.13;0.40;;;;;;;11.99;100.00;99701.28;5021997;28;20049;-82
2021/12/30 07:15:28;;;;;;;1.30;0.20;;;;;;;11.97;100.00;99692.50;5018191;28;20034;-82
2021/12/30 07:17:55;;;;;;;3.40;1.13;;;;;;;11.94;100.00;99688.53;5022126;28;20129;-82
2021/12/30 07:20:22;;;;;;;0.77;0.40;;;;;;;11.92;99.55;99695.63;5020604;28;20047;-82
2021/12/30 07:22:49;;;;;;;2.35;0.30;;;;;;;11.87;99.77;99702.31;5018966;28;20042;-82
2021/12/30 07:25:16;;;;;;;2.97;0.50;;;;;;;11.85;99.59;99704.69;4997931;28;20602;-82
2021/12/30 07:27:49;;;;;;;6.25;0.65;;;;;;;11.84;99.79;99707.81;5018314;28;20055;-82
2021/12/30 07:30:17;;;;;;;4.47;1.08;;;;;;;11.83;99.59;99700.69;5013859;28;20269;-82
2021/12/30 07:32:44;;;;;;;3.50;0.43;;;;;;;11.81;99.68;99703.06;5017534;28;20047;-82
2021/12/30 07:35:11;;;;;;;1.40;0.20;;;;;;;11.81;100.00;99709.38;5018576;28;20389;-82
2021/12/30 07:37:38;;;;;;;3.28;0.45;;;;;;;11.82;99.92;99710.19;5021965;28;20065;-82
2021/12/30 07:40:06;;;;;;;3.72;0.90;;;;;;;11.85;99.94;99714.97;5019184;28;20115;-82
2021/12/30 07:42:33;;;;;;;1.92;0.30;;;;;;;11.89;100.00;99724.13;5018165;28;20042;-84
2021/12/30 07:45:00;;;;;;;3.83;0.50;;;;;;;11.91;100.00;99719.03;5020324;28;20037;-83
2021/12/30 07:47:27;;;;;;;1.00;0.30;;;;;;;11.94;100.00;99724.59;5025060;28;20165;-82
2021/12/30 07:49:53;;;;;;;2.15;0.50;;;;;;;11.97;100.00;99731.34;5020154;28;20064;-83
2021/12/30 07:52:20;;;;;;;6.60;2.05;;;;;;;11.99;100.00;99751.97;5016192;28;20474;-83
2021/12/30 07:54:47;;;;;;;1.55;0.20;;;;;;;12.02;100.00;99744.91;5014640;28;20081;-82
2021/12/30 07:57:21;;;;;;;2.00;0.40;;;;;;;12.05;100.00;99746.91;5019144;28;20073;-83
2021/12/30 07:59:49;;;;;;;6.07;0.40;;;;;;;12.08;100.00;99752.50;5004771;28;20054;-82
2021/12/30 08:02:17;;;;;;;0.77;0.50;;;;;;;12.10;100.00;99750.13;5012476;28;20417;-83
2021/12/30 08:04:44;;;;;;;0.22;0.20;;;;;;;12.11;99.92;99740.66;5011199;28;20029;-83
2021/12/30 08:07:11;;;;;;;1.02;0.25;;;;;;;12.14;99.71;99744.63;5023296;28;20038;-83
2021/12/30 08:09:38;;;;;;;1.00;0.30;;;;;;;12.15;99.73;99754.56;5014649;28;20041;-83
2021/12/30 08:12:05;;;;;;;0.55;0.35;;;;;;;12.15;99.53;99758.13;5021367;28;20045;-83
2021/12/30 08:14:32;;;;;;;1.45;0.20;;;;;;;12.16;99.36;99753.38;5021388;28;20069;-82
2021/12/30 08:17:00;;;;;;;1.35;0.30;;;;;;;12.16;99.36;99745.03;5017270;28;20551;-83
2021/12/30 08:19:32;;;;;;;1.42;0.13;;;;;;;12.15;99.26;99735.16;5026126;28;20154;-84
2021/12/30 08:21:58;;;;;;;1.65;0.30;;;;;;;12.15;99.29;99729.59;5017425;28;20052;-83
2021/12/30 08:24:27;;;;;;;0.82;0.30;;;;;;;12.15;98.91;99735.16;5017064;28;20366;-83
2021/12/30 08:27:12;;;;;;;1.42;0.30;;;;;;;12.14;99.06;99739.88;5016123;28;20042;-82
2021/12/30 08:29:41;;;;;;;5.47;0.60;;;;;;;12.17;98.99;99749.44;5017497;28;20045;-83
2021/12/30 08:32:11;;;;;;;1.27;0.50;;;;;;;12.15;98.86;99752.56;5019941;28;20116;-83
2021/12/30 08:34:43;;;;;;;0.30;0.10;;;;;;;12.13;98.81;99768.00;5019466;28;20496;-82
2021/12/30 08:37:11;;;;;;;3.25;0.40;;;;;;;12.16;98.77;99775.56;5017032;28;20100;-82
2021/12/30 08:39:40;;;;;;;0.50;0.20;;;;;;;12.18;99.07;99784.31;5019595;28;20045;-81
2021/12/30 08:42:20;;;;;;;0.75;0.20;;;;;;;12.19;98.75;99806.16;5022956;28;20076;-82
2021/12/30 08:44:48;;;;;;;1.38;0.22;;;;;;;12.23;98.73;99810.94;5039834;28;20037;-82
2021/12/30 08:47:15;;;;;;;0.95;0.43;;;;;;;12.24;98.96;99816.09;5026551;28;20115;-81
2021/12/30 08:49:46;;;;;;;2.35;0.45;;;;;;;12.25;98.78;99812.16;5026342;28;20153;-82
2021/12/30 08:52:14;;;;;;;2.45;0.32;;;;;;;12.28;98.89;99799.50;5008955;28;20044;-81
2021/12/30 08:54:41;;;;;;;0.40;0.20;;;;;;;12.31;98.65;99798.75;5025158;28;20037;-81
2021/12/30 08:57:08;;;;;;;1.73;0.17;;;;;;;12.33;98.71;99796.38;5023885;28;20227;-82
2021/12/30 08:59:36;;;;;;;2.05;0.40;;;;;;;12.34;98.71;99809.88;5026057;28;20040;-82
2021/12/30 09:02:05;;;;;;;1.00;0.30;;;;;;;12.37;98.72;99814.66;5024603;28;20073;-82
2021/12/30 09:04:32;;;;;;;0.57;0.30;;;;;;;12.38;98.39;99815.47;5025018;28;20113;-82
2021/12/30 09:06:59;;;;;;;0.57;0.38;;;;;;;12.41;98.42;99840.50;5018611;28;20048;-82
2021/12/30 09:09:27;;;;;;;2.90;0.75;;;;;;;12.42;98.25;99850.41;5015913;28;20046;-82
2021/12/30 09:11:54;;;;;;;0.88;0.10;;;;;;;12.45;98.43;99849.66;5021882;28;20045;-81
2021/12/30 09:14:21;;;;;;;0.47;0.20;;;;;;;12.47;98.34;99855.63;5020344;28;20148;-81
2021/12/30 09:16:49;;;;;;;1.75;0.95;;;;;;;12.47;98.13;99858.41;5021917;28;20566;-82
2021/12/30 09:19:16;;;;;;;1.67;0.20;;;;;;;12.47;98.36;99858.41;5019921;28;20064;-82
2021/12/30 09:21:49;;;;;;;1.92;0.10;;;;;;;12.49;98.71;99838.59;5008283;28;20132;-82
2021/12/30 09:24:15;;;;;;;1.85;0.20;;;;;;;12.51;98.69;99834.25;5005617;28;20045;-82
2021/12/30 09:26:42;;;;;;;1.30;0.10;;;;;;;12.50;99.02;99843.75;5014615;28;20060;-82
2021/12/30 09:29:12;;;;;;;0.13;0.13;;;;;;;12.50;99.09;99851.28;4999455;28;20048;-82
2021/12/30 09:31:42;;;;;;;0.35;0.20;;;;;;;12.51;99.03;99853.69;5016247;28;20213;-82
2021/12/30 09:34:09;;;;;;;1.65;0.30;;;;;;;12.52;99.12;99858.06;5016462;28;20037;-82
2021/12/30 09:36:36;;;;;;;1.00;0.35;;;;;;;12.51;99.37;99864.81;5004766;28;20136;-82
2021/12/30 09:39:07;;;;;;;0.60;0.20;;;;;;;12.54;99.47;99866.81;5013306;28;20510;-82
2021/12/30 09:41:37;;;;;;;2.08;0.38;;;;;;;12.57;99.60;99868.03;5021932;28;20049;-83
2021/12/30 09:44:09;;;;;;;1.35;0.30;;;;;;;12.56;99.63;99858.91;5015189;28;20132;-85
2021/12/30 09:46:36;;;;;;;0.88;0.50;;;;;;;12.57;99.74;99866.06;5015966;28;20078;-82
2021/12/30 09:49:06;;;;;;;1.45;0.30;;;;;;;12.58;99.75;99864.88;5018863;28;20029;-82
2021/12/30 09:51:35;;;;;;;1.38;0.38;;;;;;;12.58;99.97;99864.88;4999260;28;20742;-83
2021/12/30 09:54:04;;;;;;;2.08;0.63;;;;;;;12.57;100.00;99868.03;5014859;28;20164;-82
2021/12/30 09:56:31;;;;;;;1.02;0.35;;;;;;;12.58;100.00;99869.63;5013766;28;20089;-82
2021/12/30 09:58:58;;;;;;;1.40;0.52;;;;;;;12.57;100.00;99871.63;5012702;28;20572;-82
2021/12/30 10:01:25;;;;;;;2.45;0.50;;;;;;;12.58;100.00;99870.44;5006151;28;20133;-83
2021/12/30 10:03:56;;;;;;;1.75;0.60;;;;;;;12.59;100.00;99876.78;5018573;28;20095;-83
2021/12/30 10:06:24;;;;;;;1.20;0.40;;;;;;;12.60;100.00;99881.16;5024935;28;20084;-82
2021/12/30 10:09:00;;;;;;;1.65;0.50;;;;;;;12.59;100.00;99874.00;5024099;28;20547;-82
2021/12/30 10:11:27;;;;;;;1.45;0.32;;;;;;;12.59;100.00;99877.59;5010119;28;20048;-82
2021/12/30 10:13:59;;;;;;;5.60;0.75;;;;;;;12.60;100.00;99879.16;5025070;28;20073;-82
2021/12/30 10:16:26;;;;;;;4.05;0.90;;;;;;;12.63;100.00;99880.38;5028441;28;20048;-82
2021/12/30 10:19:00;;;;;;;0.75;0.40;;;;;;;12.63;100.00;99872.84;5011297;28;20385;-83
2021/12/30 10:21:32;;;;;;;4.18;0.43;;;;;;;12.66;100.00;99880.44;5028287;28;20046;-83
2021/12/30 10:24:02;;;;;;;7.35;1.10;;;;;;;12.67;100.00;99884.00;5020634;28;20482;-83
2021/12/30 10:26:29;;;;;;;5.03;0.85;;;;;;;12.68;100.00;99891.19;5027307;28;20037;-83
2021/12/30 10:29:00;;;;;;;3.17;1.35;;;;;;;12.67;99.96;99878.47;5007740;28;20045;-82
2021/12/30 10:31:31;;;;;;;3.05;0.85;;;;;;;12.67;99.85;99884.00;5025075;28;20065;-83
2021/12/30 10:34:00;;;;;;;2.50;0.80;;;;;;;12.66;99.60;99890.72;5027362;28;20053;-83
2021/12/30 10:36:33;;;;;;;2.97;0.63;;;;;;;12.68;99.77;99891.94;5027260;28;20072;-82
2021/12/30 10:39:20;;;;;;;2.15;0.70;;;;;;;12.68;99.75;99880.84;5008064;28;20528;-83
2021/12/30 10:41:52;;;;;;;4.22;1.65;;;;;;;12.68;99.50;99883.63;5039867;28;20056;-83
2021/12/30 10:44:20;;;;;;;3.65;0.60;;;;;;;12.70;99.43;99884.06;5009175;28;20133;-82
2021/12/30 10:46:47;;;;;;;1.48;0.75;;;;;;;12.72;99.47;99901.13;5027863;28;20132;-83
2021/12/30 10:49:25;;;;;;;2.40;0.70;;;;;;;12.72;99.36;99892.81;5008294;28;20085;-82
2021/12/30 10:51:53;;;;;;;3.67;0.93;;;;;;;12.75;99.19;99892.06;5023797;28;20041;-83
2021/12/30 10:54:32;;;;;;;6.20;0.77;;;;;;;12.76;98.58;99876.97;5027609;28;20164;-83
2021/12/30 10:57:02;;;;;;;1.50;0.40;;;;;;;12.78;98.77;99879.38;5026817;28;20043;-83
2021/12/30 10:59:33;;;;;;;2.15;0.60;;;;;;;12.78;98.86;99874.63;5025129;28;20044;-83
2021/12/30 11:02:12;;;;;;;2.67;0.53;;;;;;;12.79;99.08;99878.19;5024192;28;20128;-82
2021/12/30 11:04:41;;;;;;;1.38;0.40;;;;;;;12.83;98.56;99881.81;5024079;28;20129;-82
2021/12/30 11:07:14;;;;;;;2.53;0.60;;;;;;;12.82;98.46;99863.53;5023378;28;20034;-82
2021/12/30 11:09:53;;;;;;;0.95;0.43;;;;;;;12.83;98.41;99882.63;5029085;28;20033;-82
2021/12/30 11:12:30;;;;;;;3.55;0.98;;;;;;;12.84;98.47;99872.28;5025036;28;20465;-81
2021/12/30 11:15:16;;;;;;;3.63;0.50;;;;;;;12.83;98.45;99865.94;5021010;28;20051;-81
2021/12/30 11:17:45;;;;;;;3.42;0.90;;;;;;;12.86;98.36;99855.25;5026569;28;20515;-83
2021/12/30 11:20:18;;;;;;;1.25;0.70;;;;;;;12.84;98.08;99859.19;5017447;28;20448;-82
2021/12/30 11:22:47;;;;;;;3.13;0.50;;;;;;;12.88;98.28;99855.66;5027971;28;20030;-82
2021/12/30 11:25:20;;;;;;;0.82;0.50;;;;;;;12.89;98.27;99857.25;5026620;28;20054;-81
2021/12/30 11:27:46;;;;;;;2.00;0.70;;;;;;;12.89;98.05;99855.28;5027455;28;20468;-81
2021/12/30 11:30:16;;;;;;;0.75;0.43;;;;;;;12.90;98.21;99858.84;5024358;28;20041;-88
2021/12/30 11:32:48;;;;;;;1.33;0.40;;;;;;;12.92;98.03;99862.84;5026375;28;20065;-84
2021/12/30 11:35:17;;;;;;;0.75;0.30;;;;;;;12.92;97.83;99862.06;5023513;28;20065;-83
2021/12/30 11:37:45;;;;;;;3.15;0.52;;;;;;;12.93;97.80;99877.53;5009801;28;20148;-83
2021/12/30 11:40:18;;;;;;;1.77;0.70;;;;;;;12.94;97.77;99860.50;5025577;28;20029;-83